Latest Weather Observations for Braidwood

IDN60901

Issued at 2:55 pm EST Tuesday 2 September 2014 (issued every 10 minutes, with the page automatically refreshed every 10 minutes)

About weather observations | Map of Canberra area stations | Latest observations for Canberra area | Other Formats
Station Details ID: 069132 Name: BRAIDWOOD RACECOURSE AWS Lat: -35.43 Lon: 149.78 Height: 665.2 m
Data from the previous 72 hours. | See also: Recent months at Braidwood
Date/Time
EST
Tmp

°C
App
Tmp
°C
Dew
Point
°C
Rel
Hum
%
Delta-T

°C
Wind Press
QNH
hPa
Press
MSL
hPa
Rain
since
9 am
mm
Dir
 
Spd
km/h
Gust
km/h
Spd
kts
Gust
kts
02/02:30pm 9.1 4.7 2.7 64 2.8 SW 15 24 8 13 1009.2 - 0.0
02/02:00pm 9.8 4.4 4.4 69 2.5 SSW 22 30 12 16 1009.0 1008.8 0.0
02/01:30pm 9.3 3.2 2.6 63 3.0 SSW 24 37 13 20 1009.2 - 0.0
02/01:12pm 9.9 2.8 1.3 55 3.7 SSW 28 48 15 26 1009.1 - 0.0
02/01:00pm 10.2 4.0 2.1 57 3.6 SSW 24 33 13 18 1009.0 1008.8 0.0
02/12:30pm 10.4 5.2 2.3 57 3.6 SSW 19 32 10 17 1009.2 - 0.0
02/12:00pm 9.9 4.5 2.5 60 3.3 SSW 20 28 11 15 1009.5 1009.3 0.0
02/11:30am 9.6 5.1 2.2 60 3.2 SSW 15 26 8 14 1009.7 - 0.0
02/11:00am 9.4 5.3 2.5 62 3.1 SSW 13 30 7 16 1009.9 1009.7 0.0
02/10:30am 8.9 4.3 1.8 61 3.1 SSW 15 22 8 12 1009.9 - 0.0
02/10:00am 8.5 3.1 1.2 60 3.1 SSW 19 28 10 15 1010.0 1009.8 0.0
02/09:30am 8.7 3.9 2.7 66 2.6 SSW 17 30 9 16 1010.2 - 0.0
02/09:00am 7.9 4.7 3.0 71 2.2 SW 9 13 5 7 1010.1 1009.9 0.0
02/08:30am 7.5 3.8 2.2 69 2.3 SW 11 20 6 11 1010.1 - 0.0
02/08:00am 7.7 2.9 2.6 70 2.2 WSW 17 22 9 12 1010.0 1009.8 0.0
02/07:30am 7.8 4.4 4.2 78 1.6 W 11 15 6 8 1009.2 - 0.0
02/07:00am 7.6 4.7 4.4 80 1.5 W 9 15 5 8 1008.9 1008.7 0.0
02/06:30am 7.4 3.7 4.4 81 1.4 NW 13 22 7 12 1008.5 - 0.0
02/06:00am 7.3 4.8 4.6 83 1.2 NNW 7 13 4 7 1008.9 1008.7 0.0
02/05:30am 7.5 4.6 4.6 82 1.3 NW 9 17 5 9 1008.6 - 0.0
02/05:00am 7.7 4.4 4.8 82 1.3 NNW 11 20 6 11 1008.1 1007.8 0.0
02/04:30am 8.1 4.5 4.9 80 1.5 NW 13 20 7 11 1008.6 - 0.0
02/04:00am 8.2 4.9 4.6 78 1.7 NNW 11 22 6 12 1008.4 1008.2 0.0
02/03:30am 8.2 5.7 4.8 79 1.6 N 7 15 4 8 1008.6 - 0.0
02/03:00am 8.6 6.1 4.0 73 2.1 NNW 6 9 3 5 1008.8 1008.6 0.0
02/02:30am 9.6 5.8 4.0 68 2.6 NW 13 22 7 12 1009.2 - 0.0
02/02:00am 9.7 5.2 4.3 69 2.5 WNW 17 22 9 12 1009.5 1009.3 0.0
02/01:30am 9.8 6.1 4.4 69 2.5 NW 13 19 7 10 1010.0 - 0.0
02/01:00am 10.2 6.6 4.8 69 2.5 NW 13 19 7 10 1010.0 1009.8 0.0
02/12:30am 9.6 7.1 5.0 73 2.2 NNW 7 11 4 6 1009.7 - 0.0
02/12:00am 10.5 7.7 5.1 69 2.6 NNW 9 15 5 8 1009.7 1009.5 0.0
 
Date/Time
EST
Tmp

°C
App
Tmp
°C
Dew
Point
°C
Rel
Hum
%
Delta-T

°C
Wind Press
QNH
hPa
Press
MSL
hPa
Rain
since
9 am
mm
Dir
 
Spd
km/h
Gust
km/h
Spd
kts
Gust
kts
01/11:30pm 11.0 8.1 4.9 66 2.9 NNW 9 17 5 9 1009.7 - 0.0
01/11:00pm 11.4 8.1 4.6 63 3.2 NW 11 19 6 10 1009.9 1009.7 0.0
01/10:30pm 10.5 8.5 4.6 67 2.8 NNW 4 9 2 5 1010.0 - 0.0
01/10:00pm 11.4 8.5 4.6 63 3.2 NNW 9 22 5 12 1009.9 1009.7 0.0
01/09:30pm 11.1 8.2 4.8 65 3.0 N 9 15 5 8 1009.9 - 0.0
01/09:00pm 11.4 8.5 4.8 64 3.1 NNW 9 17 5 9 1010.1 1009.9 0.0
01/08:30pm 11.2 8.8 5.1 66 2.9 N 7 15 4 8 1010.3 - 0.0
01/08:00pm 10.5 8.2 5.7 72 2.3 N 7 11 4 6 1010.4 1010.2 0.0
01/07:30pm 9.9 8.5 5.3 73 2.2 NW 2 7 1 4 1010.7 - 0.0
01/07:00pm 10.5 8.7 5.3 70 2.5 NNW 4 9 2 5 1011.0 1010.8 0.0
01/06:30pm 11.8 9.0 5.0 63 3.2 NNW 9 15 5 8 1011.1 - 0.0
01/06:00pm 12.5 9.7 5.0 60 3.6 NNW 9 15 5 8 1011.0 1010.8 0.0
01/05:30pm 13.4 9.8 4.8 56 4.1 NW 13 20 7 11 1010.7 - 0.0
01/05:00pm 14.5 9.0 4.2 50 4.9 NW 22 35 12 19 1010.6 1010.4 0.0
01/04:30pm 15.4 9.9 3.9 46 5.5 NW 22 35 12 19 1010.4 - 0.0
01/04:00pm 14.6 9.7 4.3 50 4.9 NW 19 28 10 15 1010.4 1010.2 0.0
01/03:41pm 15.0 8.3 3.8 47 5.3 WNW 28 48 15 26 1010.5 - 0.0
01/03:30pm 15.3 7.4 2.1 41 6.1 WNW 33 50 18 27 1010.5 - 0.0
01/03:04pm 15.6 8.8 3.1 43 5.9 NW 28 48 15 26 1010.5 - 0.0
01/03:00pm 15.6 9.2 3.4 44 5.8 NW 26 37 14 20 1010.5 1010.3 0.0
01/02:30pm 15.2 8.9 3.7 46 5.5 NW 26 39 14 21 1010.6 - 0.0
01/02:00pm 14.9 8.6 3.7 47 5.3 NW 26 37 14 20 1011.0 1010.8 0.0
01/01:30pm 15.3 8.7 4.1 47 5.4 NW 28 46 15 25 1011.6 - 0.0
01/01:00pm 16.2 9.9 3.9 44 5.9 NW 26 37 14 20 1011.9 1011.7 0.0
01/12:30pm 15.7 10.0 4.7 48 5.4 NW 24 37 13 20 1012.7 - 0.0
01/12:00pm 15.6 11.5 6.1 53 4.8 NW 17 30 9 16 1013.2 1013.0 0.0
01/11:30am 14.6 11.0 5.1 53 4.6 NNW 13 22 7 12 1013.8 - 0.0
01/11:00am 13.9 10.0 5.3 56 4.2 NW 15 22 8 12 1014.5 1014.3 0.0
01/10:30am 14.9 11.5 6.0 55 4.4 NNW 13 24 7 13 1014.7 - 0.0
01/10:00am 13.4 10.3 5.6 59 3.8 NNW 11 19 6 10 1015.1 1015.0 0.0
01/09:30am 13.1 9.5 5.0 58 3.9 NW 13 19 7 10 1015.4 - 0.0
01/09:00am 13.7 10.4 6.6 62 3.5 NW 13 24 7 13 1015.5 1016.3 0.2
01/08:30am 10.9 9.8 6.8 76 2.0 N 2 7 1 4 1015.9 - 0.2
01/08:00am 9.2 7.1 5.6 78 1.7 NNE 6 9 3 5 1016.1 1016.8 0.2
01/07:30am 7.4 5.1 4.9 84 1.1 NNE 6 9 3 5 1016.1 - 0.2
01/07:00am 6.0 3.4 4.0 87 0.9 N 7 11 4 6 1015.9 1016.6 0.0
01/06:30am 4.5 1.9 3.2 91 0.6 NNE 6 11 3 6 1016.0 - 0.0
01/06:00am 3.7 1.4 2.5 92 0.5 N 4 7 2 4 1015.8 1016.5 0.0
01/05:30am 2.9 1.2 1.7 92 0.5 CALM 0 6 0 3 1015.5 - 0.0
01/05:00am 2.7 0.2 1.5 92 0.5 NNW 4 6 2 3 1015.5 1016.3 0.0
01/04:30am 3.3 1.3 2.4 94 0.4 N 2 4 1 2 1015.2 - 0.0
01/04:00am 3.3 1.3 2.4 94 0.4 N 2 6 1 3 1015.4 1016.2 0.0
01/03:30am 3.5 1.6 2.8 95 0.3 N 2 6 1 3 1015.3 - 0.0
01/03:00am 2.2 0.4 1.3 94 0.4 CALM 0 0 0 0 1015.5 1016.3 0.0
01/02:30am 3.3 1.7 2.6 95 0.3 CALM 0 0 0 0 1015.9 - 0.0
01/02:00am 3.2 1.6 2.5 95 0.3 CALM 0 0 0 0 1016.1 1016.8 0.0
01/01:30am 1.9 0.0 0.7 92 0.5 CALM 0 0 0 0 1016.4 - 0.0
01/01:00am 2.6 0.8 1.4 92 0.5 CALM 0 0 0 0 1016.9 1017.7 0.0
01/12:30am 3.1 1.4 1.8 91 0.5 CALM 0 0 0 0 1017.0 - 0.0
01/12:00am 3.6 1.9 2.1 90 0.6 CALM 0 0 0 0 1017.1 1017.9 0.0
 
Date/Time
EST
Tmp

°C
App
Tmp
°C
Dew
Point
°C
Rel
Hum
%
Delta-T

°C
Wind Press
QNH
hPa
Press
MSL
hPa
Rain
since
9 am
mm
Dir
 
Spd
km/h
Gust
km/h
Spd
kts
Gust
kts
31/11:30pm 4.8 3.4 3.5 91 0.6 CALM 0 0 0 0 1017.4 - 0.0
31/11:00pm 4.5 2.9 2.5 87 0.8 CALM 0 0 0 0 1017.5 1018.2 0.0
31/10:30pm 5.3 3.9 3.3 87 0.9 CALM 0 0 0 0 1017.7 - 0.0
31/10:00pm 5.7 4.3 3.4 85 1.0 CALM 0 0 0 0 1018.1 1018.9 0.0
31/09:30pm 6.0 3.8 3.2 82 1.2 N 4 4 2 2 1018.2 - 0.0
31/09:00pm 7.0 4.4 3.4 78 1.6 NNW 6 6 3 3 1018.2 1019.0 0.0
31/08:30pm 6.8 4.9 3.1 77 1.6 N 2 4 1 2 1018.2 - 0.0
31/08:00pm 7.5 5.3 3.6 76 1.7 NW 4 6 2 3 1018.1 1018.9 0.0
31/07:30pm 7.5 4.7 3.2 74 1.9 NW 7 9 4 5 1018.1 - 0.0
31/07:00pm 9.3 6.8 4.7 73 2.1 NW 7 11 4 6 1018.0 1018.8 0.0
31/06:30pm 8.3 7.1 4.5 77 1.7 CALM 0 4 0 2 1017.9 - 0.0
31/06:00pm 9.7 7.7 4.5 70 2.4 N 4 6 2 3 1017.7 1018.4 0.0
31/05:30pm 12.0 9.7 4.7 61 3.5 NNW 6 7 3 4 1017.5 - 0.0
31/05:00pm 14.6 12.0 4.0 49 5.0 NNW 7 13 4 7 1017.1 1017.9 0.0
31/04:30pm 15.5 12.8 3.6 45 5.7 N 7 13 4 7 1016.9 - 0.0
31/04:00pm 16.0 12.6 2.1 39 6.4 NNW 9 17 5 9 1017.0 1017.8 0.0
31/03:30pm 16.4 12.8 3.1 41 6.3 N 11 17 6 9 1017.0 - 0.0
31/03:00pm 16.8 13.1 2.4 38 6.7 N 11 19 6 10 1017.4 1018.1 0.0
31/02:30pm 16.6 13.0 3.0 40 6.4 NW 11 22 6 12 1017.7 - 0.0
31/02:00pm 17.0 13.8 3.3 40 6.5 N 9 15 5 8 1017.6 1018.3 0.0
31/01:30pm 16.4 13.8 0.9 35 7.0 WNW 4 9 2 5 1018.1 - 0.0
31/01:00pm 16.5 14.1 -0.2 32 7.4 N 2 9 1 5 1018.5 1019.3 0.0
31/12:30pm 14.7 11.7 2.3 43 5.7 NE 7 13 4 7 1019.1 - 0.0
31/12:00pm 15.5 13.5 4.6 48 5.3 NNE 4 7 2 4 1019.6 1020.4 0.0
31/11:30am 14.4 12.6 7.2 62 3.7 N 6 9 3 5 1020.1 - 0.0
31/11:00am 12.7 11.6 8.6 76 2.1 N 4 7 2 4 1020.8 1021.6 0.0
31/10:30am 11.0 9.8 8.1 82 1.5 N 4 7 2 4 1021.2 - 0.0
31/10:00am 8.8 7.3 6.6 86 1.1 NNW 4 6 2 3 1021.4 1022.2 0.0
31/09:30am 7.7 6.7 5.5 86 1.0 CALM 0 6 0 3 1021.5 - 0.0
31/09:00am 7.1 6.3 6.5 96 0.3 CALM 0 0 0 0 1021.6 1022.4 0.2
31/08:30am 4.2 2.8 3.6 96 0.3 CALM 0 0 0 0 1021.7 - 0.2
31/08:00am 2.1 0.4 1.7 97 0.2 CALM 0 0 0 0 1021.8 1022.7 0.2
31/07:30am 0.9 -1.0 0.5 97 0.2 CALM 0 0 0 0 1021.6 - 0.2
31/07:00am -0.4 -2.5 -0.8 97 0.1 CALM 0 0 0 0 1021.4 1022.2 0.2
31/06:30am -0.6 -2.7 -1.0 97 0.1 CALM 0 0 0 0 1021.2 - 0.2
31/06:00am -0.6 - - - - CALM 0 0 0 0 1021.1 1021.9 0.2
31/05:30am -0.6 - - - - CALM 0 0 0 0 1020.9 - 0.2
31/03:00am 1.0 - - - - CALM 0 0 0 0 1021.4 1022.2 0.2
31/02:30am 1.6 - - - - CALM 0 0 0 0 1021.7 - 0.2
31/02:00am 2.5 - - - - CALM 0 0 0 0 1021.9 1022.8 0.0
31/01:30am 2.8 - - - - CALM 0 0 0 0 1022.5 - 0.0
31/12:00am 4.3 - - - - CALM 0 0 0 0 1023.0 1023.8 0.0
 
Date/Time
EST
Tmp

°C
App
Tmp
°C
Dew
Point
°C
Rel
Hum
%
Delta-T

°C
Wind Press
QNH
hPa
Press
MSL
hPa
Rain
since
9 am
mm
Dir
 
Spd
km/h
Gust
km/h
Spd
kts
Gust
kts
30/11:30pm 4.1 - - - - CALM 0 0 0 0 1023.1 - 0.0
30/11:00pm 3.9 - - - - CALM 0 0 0 0 1023.3 1024.2 0.0
30/10:30pm 4.2 - - - - CALM 0 0 0 0 1023.4 - 0.0
30/10:00pm 3.7 - - - - CALM 0 0 0 0 1023.6 1024.5 0.0
30/09:30pm 5.3 - - - - CALM 0 0 0 0 1023.9 - 0.0
30/09:00pm 5.1 - - - - CALM 0 0 0 0 1024.0 1024.8 0.0
30/08:30pm 6.0 - - - - CALM 0 0 0 0 1024.1 - 0.0
30/08:00pm 6.3 - - - - CALM 0 0 0 0 1024.0 1024.8 0.0
30/07:30pm 6.0 - - - - CALM 0 0 0 0 1024.0 - 0.0
30/07:00pm 6.7 - - - - SSE 4 6 2 3 1023.6 1024.5 0.0
30/06:30pm 8.2 - - - - SSE 7 11 4 6 1023.5 - 0.0
30/06:00pm 8.9 - - - - SE 6 9 3 5 1023.4 1024.3 0.0
30/05:30pm 10.1 - - - - ESE 15 19 8 10 1023.3 - 0.0
30/05:00pm 11.3 - - - - SE 15 20 8 11 1023.2 1024.1 0.0
30/04:30pm 12.0 - - - - ESE 20 28 11 15 1023.3 - 0.0
30/04:00pm 11.3 - - - - SSE 17 24 9 13 1023.4 1024.3 0.0
30/03:30pm 12.2 - - - - S 17 22 9 12 1023.4 - 0.0
30/03:00pm 11.8 - - - - S 19 26 10 14 1023.5 1024.4 0.0

Latest Capital City Observations: Canberra | Sydney | Melbourne | Brisbane | Adelaide | Perth | Hobart | Darwin

Other Formats:

Comma delimited format used in spreadsheet applications
http://www.bom.gov.au/fwo/IDN60903/IDN60903.94927.axf

JavaScript Object Notation format (JSON) in row-major order
http://www.bom.gov.au/fwo/IDN60903/IDN60903.94927.json